AFR1262 LFPG-ESSA
Flight info
| Callsign | AFR1262 |
|---|---|
| Flight time | N/A |
| Altitude | 37000 |
| Route | NURMO DCT CMB DCT VEKIN DCT ADUTO N873 VICOT DCT 520713N0050012E 524335N0055949E 530034N0062813E 535353N0080015E 542708N0085901E DCT AMRAK DCT 553116N0105920E 561404N0122153E 570006N0135440E DCT MIKNA N851 PELUP Z226 NILUG |
| Aircraft | A319/M-SDE3FGHIRWY/LB1 |
Departure
| Time | 2026-05-05 13:57 |
|---|---|
| Airport | Charles de Gaulle International Airport (LFPG) |
Arrival
| Time | N/A |
|---|---|
| Airport | Stockholm-Arlanda Airport (ESSA) |
| Time | Latitude | Longitude | Altitude | Speed | Heading |
|---|---|---|---|---|---|
| 2026-05-05 13:16 | 49.00721 | 2.57451 | 335 ft | 0 kts | 208° |
| 2026-05-05 13:42 | 49.00722 | 2.57452 | 335 ft | 1 kts | 208° |
| 2026-05-05 13:42 | 49.00735 | 2.57462 | 335 ft | 2 kts | 208° |
| 2026-05-05 13:42 | 49.00748 | 2.57473 | 335 ft | 2 kts | 211° |
| 2026-05-05 13:43 | 49.00760 | 2.57484 | 335 ft | 1 kts | 209° |
| 2026-05-05 13:43 | 49.00771 | 2.57485 | 336 ft | 1 kts | 175° |
| 2026-05-05 13:43 | 49.00780 | 2.57489 | 336 ft | 1 kts | 236° |
| 2026-05-05 13:43 | 49.00785 | 2.57510 | 336 ft | 1 kts | 274° |
| 2026-05-05 13:44 | 49.00784 | 2.57515 | 336 ft | 0 kts | 274° |
| 2026-05-05 13:48 | 49.00784 | 2.57514 | 336 ft | 0 kts | 274° |
| 2026-05-05 13:48 | 49.00784 | 2.57481 | 336 ft | 6 kts | 266° |
| 2026-05-05 13:48 | 49.00778 | 2.57393 | 336 ft | 10 kts | 264° |
| 2026-05-05 13:49 | 49.00774 | 2.57287 | 337 ft | 10 kts | 276° |
| 2026-05-05 13:49 | 49.00827 | 2.57203 | 337 ft | 12 kts | 330° |
| 2026-05-05 13:49 | 49.00852 | 2.57090 | 337 ft | 12 kts | 265° |
| 2026-05-05 13:49 | 49.00845 | 2.56948 | 337 ft | 15 kts | 266° |
| 2026-05-05 13:50 | 49.00835 | 2.56781 | 337 ft | 16 kts | 265° |
| 2026-05-05 13:50 | 49.00826 | 2.56603 | 338 ft | 17 kts | 266° |
| 2026-05-05 13:50 | 49.00813 | 2.56431 | 340 ft | 16 kts | 262° |
| 2026-05-05 13:50 | 49.00796 | 2.56244 | 339 ft | 19 kts | 263° |
| 2026-05-05 13:51 | 49.00776 | 2.56036 | 339 ft | 20 kts | 263° |
| 2026-05-05 13:51 | 49.00758 | 2.55822 | 340 ft | 19 kts | 261° |
| 2026-05-05 13:51 | 49.00737 | 2.55614 | 340 ft | 20 kts | 264° |
| 2026-05-05 13:51 | 49.00724 | 2.55398 | 340 ft | 20 kts | 264° |
| 2026-05-05 13:52 | 49.00671 | 2.55262 | 340 ft | 14 kts | 217° |
| 2026-05-05 13:52 | 49.00599 | 2.55262 | 339 ft | 10 kts | 165° |
| 2026-05-05 13:52 | 49.00520 | 2.55296 | 337 ft | 13 kts | 164° |
| 2026-05-05 13:52 | 49.00425 | 2.55338 | 337 ft | 14 kts | 164° |
| 2026-05-05 13:53 | 49.00324 | 2.55383 | 337 ft | 15 kts | 164° |
| 2026-05-05 13:53 | 49.00211 | 2.55434 | 334 ft | 17 kts | 163° |
| 2026-05-05 13:53 | 49.00087 | 2.55465 | 333 ft | 18 kts | 177° |
| 2026-05-05 13:53 | 48.99992 | 2.55496 | 333 ft | 14 kts | 159° |
| 2026-05-05 13:54 | 48.99907 | 2.55585 | 332 ft | 15 kts | 148° |
| 2026-05-05 13:54 | 48.99838 | 2.55715 | 330 ft | 16 kts | 110° |
| 2026-05-05 13:54 | 48.99752 | 2.55810 | 330 ft | 16 kts | 179° |
| 2026-05-05 13:54 | 48.99635 | 2.55830 | 330 ft | 17 kts | 158° |
| 2026-05-05 13:55 | 48.99603 | 2.55932 | 329 ft | 0 kts | 84° |
| 2026-05-05 13:56 | 48.99612 | 2.56060 | 329 ft | 43 kts | 85° |
| 2026-05-05 13:56 | 48.99657 | 2.56898 | 327 ft | 113 kts | 86° |
| 2026-05-05 13:56 | 48.99742 | 2.58406 | 366 ft | 166 kts | 83° |
| 2026-05-05 13:57 | 48.99842 | 2.60177 | 914 ft | 173 kts | 83° |
| 2026-05-05 13:57 | 48.99929 | 2.61987 | 1690 ft | 174 kts | 83° |
| 2026-05-05 13:57 | 48.99997 | 2.63789 | 2511 ft | 169 kts | 83° |
| 2026-05-05 13:57 | 49.00085 | 2.65506 | 3317 ft | 162 kts | 82° |
| 2026-05-05 13:58 | 49.00181 | 2.67181 | 3954 ft | 165 kts | 82° |
| 2026-05-05 13:58 | 49.00287 | 2.69005 | 4401 ft | 181 kts | 83° |
| 2026-05-05 13:58 | 49.00397 | 2.70998 | 4826 ft | 199 kts | 83° |
| 2026-05-05 13:58 | 49.00517 | 2.73218 | 5251 ft | 220 kts | 84° |
| 2026-05-05 13:59 | 49.00775 | 2.78218 | 6283 ft | 256 kts | 84° |
| 2026-05-05 13:59 | 49.00916 | 2.80982 | 7004 ft | 265 kts | 85° |
| 2026-05-05 14:00 | 49.02069 | 2.86196 | 8627 ft | 273 kts | 46° |
| 2026-05-05 14:00 | 49.03071 | 2.87379 | 9119 ft | 278 kts | 30° |
| 2026-05-05 14:00 | 49.05584 | 2.88152 | 10108 ft | 290 kts | 357° |
| 2026-05-05 14:00 | 49.07615 | 2.87809 | 10723 ft | 302 kts | 355° |
| 2026-05-05 14:01 | 49.09781 | 2.87440 | 11136 ft | 320 kts | 355° |
| 2026-05-05 14:01 | 49.12044 | 2.87064 | 11499 ft | 338 kts | 355° |
| 2026-05-05 14:01 | 49.14417 | 2.86675 | 11818 ft | 355 kts | 355° |
| 2026-05-05 14:01 | 49.16930 | 2.86267 | 12118 ft | 372 kts | 355° |
| 2026-05-05 14:02 | 49.19558 | 2.85840 | 12535 ft | 384 kts | 355° |
| 2026-05-05 14:02 | 49.22221 | 2.85407 | 13189 ft | 388 kts | 355° |
| 2026-05-05 14:02 | 49.24916 | 2.84969 | 13863 ft | 390 kts | 355° |
| 2026-05-05 14:02 | 49.27593 | 2.84534 | 14484 ft | 394 kts | 355° |
| 2026-05-05 14:03 | 49.30352 | 2.84086 | 15065 ft | 399 kts | 355° |
| 2026-05-05 14:03 | 49.33104 | 2.83639 | 15621 ft | 403 kts | 355° |
| 2026-05-05 14:03 | 49.35924 | 2.83182 | 16153 ft | 407 kts | 355° |
| 2026-05-05 14:03 | 49.38739 | 2.82723 | 16672 ft | 412 kts | 355° |
| 2026-05-05 14:04 | 49.41579 | 2.82260 | 17178 ft | 416 kts | 355° |
| 2026-05-05 14:04 | 49.44481 | 2.81787 | 17675 ft | 420 kts | 354° |
| 2026-05-05 14:04 | 49.47375 | 2.81314 | 18153 ft | 424 kts | 354° |
| 2026-05-05 14:04 | 49.50338 | 2.80829 | 18628 ft | 427 kts | 354° |
| 2026-05-05 14:05 | 49.53290 | 2.80344 | 19100 ft | 431 kts | 355° |
| 2026-05-05 14:05 | 49.56265 | 2.79856 | 19557 ft | 434 kts | 355° |
| 2026-05-05 14:05 | 49.59274 | 2.79362 | 20024 ft | 436 kts | 355° |
| 2026-05-05 14:05 | 49.62322 | 2.78863 | 20479 ft | 439 kts | 355° |
| 2026-05-05 14:06 | 49.65369 | 2.78362 | 20909 ft | 442 kts | 355° |
| 2026-05-05 14:06 | 49.68418 | 2.77860 | 21322 ft | 445 kts | 355° |
| 2026-05-05 14:06 | 49.71524 | 2.77347 | 21728 ft | 448 kts | 355° |
| 2026-05-05 14:06 | 49.74601 | 2.76839 | 22118 ft | 451 kts | 355° |
| 2026-05-05 14:07 | 49.77753 | 2.76320 | 22506 ft | 454 kts | 355° |
| 2026-05-05 14:07 | 49.80933 | 2.76275 | 22841 ft | 456 kts | 7° |
| 2026-05-05 14:07 | 49.84013 | 2.77372 | 23213 ft | 456 kts | 21° |
| 2026-05-05 14:07 | 49.86846 | 2.79505 | 23568 ft | 456 kts | 33° |
| 2026-05-05 14:08 | 49.89544 | 2.82126 | 23951 ft | 458 kts | 34° |
| 2026-05-05 14:08 | 49.91351 | 2.83931 | 24181 ft | 460 kts | 34° |
| 2026-05-05 14:08 | 49.94941 | 2.87521 | 24651 ft | 464 kts | 34° |
| 2026-05-05 14:08 | 49.97665 | 2.90230 | 24977 ft | 466 kts | 34° |
| 2026-05-05 14:09 | 50.00409 | 2.92948 | 25287 ft | 469 kts | 34° |
| 2026-05-05 14:09 | 50.03174 | 2.95677 | 25593 ft | 471 kts | 34° |
| 2026-05-05 14:09 | 50.05940 | 2.98408 | 26015 ft | 470 kts | 34° |
| 2026-05-05 14:09 | 50.08702 | 3.01133 | 26494 ft | 469 kts | 34° |
| 2026-05-05 14:10 | 50.11489 | 3.03885 | 26949 ft | 468 kts | 34° |
| 2026-05-05 14:10 | 50.14212 | 3.06579 | 27363 ft | 467 kts | 34° |
| 2026-05-05 14:10 | 50.16983 | 3.09329 | 27770 ft | 467 kts | 34° |
| 2026-05-05 14:10 | 50.19750 | 3.12069 | 28165 ft | 467 kts | 34° |
| 2026-05-05 14:11 | 50.21610 | 3.13804 | 28428 ft | 468 kts | 32° |
| 2026-05-05 14:11 | 50.25414 | 3.16937 | 28972 ft | 468 kts | 27° |
| 2026-05-05 14:11 | 50.28388 | 3.19086 | 29386 ft | 468 kts | 26° |
| 2026-05-05 14:11 | 50.31387 | 3.21173 | 29796 ft | 468 kts | 26° |
| 2026-05-05 14:12 | 50.33377 | 3.22551 | 30047 ft | 468 kts | 26° |
| 2026-05-05 14:12 | 50.37310 | 3.25290 | 30523 ft | 468 kts | 26° |
| 2026-05-05 14:12 | 50.40292 | 3.27400 | 30874 ft | 468 kts | 27° |
| 2026-05-05 14:12 | 50.43206 | 3.29617 | 31234 ft | 467 kts | 28° |
| 2026-05-05 14:13 | 50.46118 | 3.31898 | 31579 ft | 467 kts | 28° |
| 2026-05-05 14:13 | 50.49020 | 3.34183 | 31903 ft | 467 kts | 28° |
| 2026-05-05 14:13 | 50.51966 | 3.36444 | 32236 ft | 468 kts | 26° |
| 2026-05-05 14:13 | 50.54937 | 3.38543 | 32569 ft | 468 kts | 25° |
| 2026-05-05 14:14 | 50.57948 | 3.40616 | 32898 ft | 468 kts | 25° |
| 2026-05-05 14:14 | 50.60907 | 3.42642 | 33205 ft | 468 kts | 25° |
| 2026-05-05 14:14 | 50.63907 | 3.44698 | 33523 ft | 467 kts | 25° |
| 2026-05-05 14:14 | 50.65868 | 3.46045 | 33700 ft | 467 kts | 25° |
| 2026-05-05 14:15 | 50.69855 | 3.48795 | 34060 ft | 468 kts | 25° |
| 2026-05-05 14:15 | 50.72829 | 3.50853 | 34337 ft | 467 kts | 24° |
| 2026-05-05 14:15 | 50.75811 | 3.52920 | 34597 ft | 468 kts | 24° |
| 2026-05-05 14:15 | 50.78788 | 3.54985 | 34848 ft | 469 kts | 24° |
| 2026-05-05 14:16 | 50.81781 | 3.57065 | 35096 ft | 469 kts | 24° |
| 2026-05-05 14:16 | 50.84740 | 3.59125 | 35270 ft | 468 kts | 24° |
| 2026-05-05 14:16 | 50.87751 | 3.61222 | 35398 ft | 470 kts | 24° |
| 2026-05-05 14:16 | 50.90746 | 3.63313 | 35529 ft | 471 kts | 24° |
| 2026-05-05 14:17 | 50.96750 | 3.67591 | 35751 ft | 473 kts | 25° |
| 2026-05-05 14:17 | 51.02773 | 3.71936 | 36012 ft | 474 kts | 25° |
| 2026-05-05 14:18 | 51.05775 | 3.74102 | 36120 ft | 475 kts | 25° |
| 2026-05-05 14:18 | 51.08804 | 3.76288 | 36208 ft | 476 kts | 25° |
| 2026-05-05 14:18 | 51.11825 | 3.78471 | 36318 ft | 476 kts | 25° |
| 2026-05-05 14:18 | 51.13807 | 3.79903 | 36394 ft | 476 kts | 25° |
| 2026-05-05 14:19 | 51.17853 | 3.82832 | 36531 ft | 477 kts | 25° |
| 2026-05-05 14:19 | 51.20876 | 3.85025 | 36669 ft | 477 kts | 25° |
| 2026-05-05 14:19 | 51.23910 | 3.87230 | 36798 ft | 477 kts | 25° |
| 2026-05-05 14:19 | 51.26918 | 3.89425 | 36848 ft | 478 kts | 25° |
| 2026-05-05 14:20 | 51.32938 | 3.93832 | 36864 ft | 478 kts | 25° |
| 2026-05-05 14:20 | 51.38987 | 3.98272 | 36863 ft | 478 kts | 25° |
| 2026-05-05 14:21 | 51.44936 | 4.03092 | 36868 ft | 478 kts | 31° |
| 2026-05-05 14:21 | 51.50492 | 4.08985 | 36875 ft | 477 kts | 38° |
| 2026-05-05 14:22 | 51.55571 | 4.15854 | 36879 ft | 477 kts | 43° |
| 2026-05-05 14:22 | 51.60441 | 4.23070 | 36879 ft | 478 kts | 43° |
| 2026-05-05 14:23 | 51.64511 | 4.29130 | 36878 ft | 478 kts | 43° |
| 2026-05-05 14:23 | 51.70226 | 4.37628 | 36878 ft | 478 kts | 43° |